sensor_id;sensor_type;location;lat;lon;timestamp;pressure;altitude;pressure_sealevel;temperature;humidity
9439;BME280;5176;42.622;25.386;2022-11-02T00:01:23;97816.47;;;12.37;74.85
9439;BME280;5176;42.622;25.386;2022-11-02T00:03:53;97810.06;;;12.41;74.95
9439;BME280;5176;42.622;25.386;2022-11-02T00:06:20;97813.38;;;12.31;75.12
9439;BME280;5176;42.622;25.386;2022-11-02T00:08:47;97809.78;;;12.46;74.58
9439;BME280;5176;42.622;25.386;2022-11-02T00:11:14;97808.00;;;12.46;74.28
9439;BME280;5176;42.622;25.386;2022-11-02T00:13:41;97792.97;;;12.34;74.13
9439;BME280;5176;42.622;25.386;2022-11-02T00:16:10;97805.38;;;12.46;73.14
9439;BME280;5176;42.622;25.386;2022-11-02T00:18:40;97804.31;;;12.49;73.43
9439;BME280;5176;42.622;25.386;2022-11-02T00:21:10;97802.63;;;12.48;73.89
9439;BME280;5176;42.622;25.386;2022-11-02T00:23:38;97802.16;;;12.55;73.68
9439;BME280;5176;42.622;25.386;2022-11-02T00:26:06;97802.66;;;12.34;74.60
9439;BME280;5176;42.622;25.386;2022-11-02T00:28:33;97802.06;;;12.43;73.95
9439;BME280;5176;42.622;25.386;2022-11-02T00:31:01;97798.59;;;12.42;73.49
9439;BME280;5176;42.622;25.386;2022-11-02T00:33:28;97796.44;;;12.35;73.10
9439;BME280;5176;42.622;25.386;2022-11-02T00:35:55;97797.19;;;12.22;73.41
9439;BME280;5176;42.622;25.386;2022-11-02T00:38:24;97794.50;;;12.24;73.31
9439;BME280;5176;42.622;25.386;2022-11-02T00:40:51;97794.69;;;12.21;72.55
9439;BME280;5176;42.622;25.386;2022-11-02T00:43:18;97781.53;;;12.07;74.40
9439;BME280;5176;42.622;25.386;2022-11-02T00:45:47;97789.78;;;12.00;74.33
9439;BME280;5176;42.622;25.386;2022-11-02T00:48:15;97788.00;;;12.01;74.13
9439;BME280;5176;42.622;25.386;2022-11-02T00:50:43;97789.53;;;11.91;75.32
9439;BME280;5176;42.622;25.386;2022-11-02T00:53:10;97780.78;;;11.90;75.04
9439;BME280;5176;42.622;25.386;2022-11-02T00:55:38;97787.91;;;11.88;74.88
9439;BME280;5176;42.622;25.386;2022-11-02T00:58:05;97779.91;;;11.90;74.73
9439;BME280;5176;42.622;25.386;2022-11-02T01:00:33;97781.81;;;11.88;75.45
9439;BME280;5176;42.622;25.386;2022-11-02T01:03:00;97775.81;;;11.86;75.82
9439;BME280;5176;42.622;25.386;2022-11-02T01:05:28;97770.56;;;11.86;75.89
9439;BME280;5176;42.622;25.386;2022-11-02T01:07:55;97771.13;;;11.91;76.07
9439;BME280;5176;42.622;25.386;2022-11-02T01:10:23;97773.81;;;11.89;76.09
9439;BME280;5176;42.622;25.386;2022-11-02T01:12:52;97768.03;;;11.84;76.10
9439;BME280;5176;42.622;25.386;2022-11-02T01:15:19;97765.03;;;11.90;75.83
9439;BME280;5176;42.622;25.386;2022-11-02T01:17:46;97763.38;;;11.73;76.10
9439;BME280;5176;42.622;25.386;2022-11-02T01:20:13;97769.88;;;11.82;76.07
9439;BME280;5176;42.622;25.386;2022-11-02T01:22:41;97758.69;;;11.64;76.78
9439;BME280;5176;42.622;25.386;2022-11-02T01:25:08;97759.91;;;11.73;76.39
9439;BME280;5176;42.622;25.386;2022-11-02T01:27:35;97762.22;;;11.63;76.77
9439;BME280;5176;42.622;25.386;2022-11-02T01:30:05;97760.34;;;11.51;77.67
9439;BME280;5176;42.622;25.386;2022-11-02T01:32:32;97753.59;;;11.61;77.14
9439;BME280;5176;42.622;25.386;2022-11-02T01:34:59;97751.81;;;11.48;77.50
9439;BME280;5176;42.622;25.386;2022-11-02T01:37:27;97751.06;;;11.45;78.65
9439;BME280;5176;42.622;25.386;2022-11-02T01:39:54;97747.84;;;11.40;78.86
9439;BME280;5176;42.622;25.386;2022-11-02T01:42:24;97748.88;;;11.38;79.96
9439;BME280;5176;42.622;25.386;2022-11-02T01:44:52;97736.47;;;11.26;80.84
9439;BME280;5176;42.622;25.386;2022-11-02T01:47:25;97744.44;;;11.24;81.63
9439;BME280;5176;42.622;25.386;2022-11-02T01:49:55;97740.09;;;11.23;82.38
9439;BME280;5176;42.622;25.386;2022-11-02T01:52:26;97729.09;;;11.32;81.40
9439;BME280;5176;42.622;25.386;2022-11-02T01:55:05;97726.47;;;11.32;81.70
9439;BME280;5176;42.622;25.386;2022-11-02T01:57:34;97731.06;;;11.43;81.21
9439;BME280;5176;42.622;25.386;2022-11-02T02:00:06;97732.09;;;11.40;81.73
9439;BME280;5176;42.622;25.386;2022-11-02T02:02:38;97732.78;;;11.44;81.61
9439;BME280;5176;42.622;25.386;2022-11-02T02:05:11;97731.53;;;11.50;81.20
9439;BME280;5176;42.622;25.386;2022-11-02T02:07:39;97732.13;;;11.55;80.45
9439;BME280;5176;42.622;25.386;2022-11-02T02:10:07;97724.25;;;11.55;80.10
9439;BME280;5176;42.622;25.386;2022-11-02T02:12:37;97728.88;;;11.65;79.20
9439;BME280;5176;42.622;25.386;2022-11-02T02:15:06;97727.19;;;11.64;79.09
9439;BME280;5176;42.622;25.386;2022-11-02T02:17:41;97728.19;;;11.62;78.82
9439;BME280;5176;42.622;25.386;2022-11-02T02:20:16;97731.66;;;11.62;78.17
9439;BME280;5176;42.622;25.386;2022-11-02T02:28:45;97727.72;;;11.55;76.86
9439;BME280;5176;42.622;25.386;2022-11-02T02:31:19;97720.56;;;11.43;76.62
9439;BME280;5176;42.622;25.386;2022-11-02T02:33:54;97733.75;;;11.27;76.87
9439;BME280;5176;42.622;25.386;2022-11-02T02:36:25;97726.84;;;11.40;77.50
9439;BME280;5176;42.622;25.386;2022-11-02T02:38:59;97727.03;;;11.37;77.47
9439;BME280;5176;42.622;25.386;2022-11-02T02:41:35;97732.69;;;11.15;77.21
9439;BME280;5176;42.622;25.386;2022-11-02T02:44:08;97732.06;;;10.96;78.11
9439;BME280;5176;42.622;25.386;2022-11-02T02:46:42;97730.13;;;11.00;77.90
9439;BME280;5176;42.622;25.386;2022-11-02T02:49:14;97723.38;;;10.80;76.61
9439;BME280;5176;42.622;25.386;2022-11-02T02:51:44;97725.69;;;10.54;77.68
9439;BME280;5176;42.622;25.386;2022-11-02T02:54:15;97719.28;;;10.60;77.55
9439;BME280;5176;42.622;25.386;2022-11-02T02:56:48;97722.00;;;10.58;77.69
9439;BME280;5176;42.622;25.386;2022-11-02T02:59:22;97718.53;;;10.58;78.28
9439;BME280;5176;42.622;25.386;2022-11-02T03:01:50;97726.94;;;10.63;78.39
9439;BME280;5176;42.622;25.386;2022-11-02T03:04:19;97720.97;;;10.61;78.62
9439;BME280;5176;42.622;25.386;2022-11-02T03:06:48;97723.69;;;10.59;79.33
9439;BME280;5176;42.622;25.386;2022-11-02T03:09:21;97716.50;;;10.47;80.27
9439;BME280;5176;42.622;25.386;2022-11-02T03:11:59;97722.25;;;10.38;81.75
9439;BME280;5176;42.622;25.386;2022-11-02T03:14:37;97718.94;;;10.34;82.83
9439;BME280;5176;42.622;25.386;2022-11-02T03:17:15;97725.81;;;10.37;82.71
9439;BME280;5176;42.622;25.386;2022-11-02T03:19:48;97715.13;;;10.40;82.57
9439;BME280;5176;42.622;25.386;2022-11-02T03:22:25;97711.69;;;10.40;82.33
9439;BME280;5176;42.622;25.386;2022-11-02T03:24:58;97714.63;;;10.49;80.89
9439;BME280;5176;42.622;25.386;2022-11-02T03:27:36;97721.06;;;10.44;80.53
9439;BME280;5176;42.622;25.386;2022-11-02T03:30:09;97717.44;;;10.46;80.27
9439;BME280;5176;42.622;25.386;2022-11-02T03:32:40;97717.16;;;10.35;80.49
9439;BME280;5176;42.622;25.386;2022-11-02T03:35:17;97711.16;;;10.33;79.79
9439;BME280;5176;42.622;25.386;2022-11-02T03:37:48;97712.09;;;10.32;79.77
9439;BME280;5176;42.622;25.386;2022-11-02T03:40:19;97714.97;;;10.27;80.58
9439;BME280;5176;42.622;25.386;2022-11-02T03:42:51;97712.28;;;10.45;80.07
9439;BME280;5176;42.622;25.386;2022-11-02T03:45:22;97704.00;;;10.36;80.22
9439;BME280;5176;42.622;25.386;2022-11-02T03:47:54;97696.28;;;10.33;80.25
9439;BME280;5176;42.622;25.386;2022-11-02T03:50:22;97713.59;;;10.36;79.16
9439;BME280;5176;42.622;25.386;2022-11-02T03:52:55;97701.03;;;10.27;80.04
9439;BME280;5176;42.622;25.386;2022-11-02T03:55:28;97698.56;;;10.40;79.05
9439;BME280;5176;42.622;25.386;2022-11-02T03:57:57;97697.72;;;10.39;78.85
9439;BME280;5176;42.622;25.386;2022-11-02T04:00:29;97707.59;;;10.18;79.76
9439;BME280;5176;42.622;25.386;2022-11-02T04:03:00;97712.31;;;10.12;80.81
9439;BME280;5176;42.622;25.386;2022-11-02T04:05:29;97707.00;;;9.97;81.11
9439;BME280;5176;42.622;25.386;2022-11-02T04:07:57;97709.09;;;9.91;81.99
9439;BME280;5176;42.622;25.386;2022-11-02T04:10:42;97708.81;;;9.95;81.62
9439;BME280;5176;42.622;25.386;2022-11-02T04:13:23;97706.78;;;9.85;82.06
9439;BME280;5176;42.622;25.386;2022-11-02T04:16:09;97700.13;;;9.95;81.24
9439;BME280;5176;42.622;25.386;2022-11-02T04:18:36;97707.00;;;9.97;80.84
9439;BME280;5176;42.622;25.386;2022-11-02T04:21:20;97700.31;;;9.92;81.56
9439;BME280;5176;42.622;25.386;2022-11-02T04:23:47;97696.06;;;9.89;81.15
9439;BME280;5176;42.622;25.386;2022-11-02T04:26:32;97696.22;;;9.86;81.18
9439;BME280;5176;42.622;25.386;2022-11-02T04:28:59;97704.28;;;9.83;81.82
9439;BME280;5176;42.622;25.386;2022-11-02T04:31:28;97697.78;;;9.90;81.28
9439;BME280;5176;42.622;25.386;2022-11-02T04:33:56;97697.06;;;9.87;81.72
9439;BME280;5176;42.622;25.386;2022-11-02T04:36:23;97697.41;;;9.80;82.02
9439;BME280;5176;42.622;25.386;2022-11-02T04:38:50;97698.00;;;9.86;81.37
9439;BME280;5176;42.622;25.386;2022-11-02T04:41:18;97691.22;;;9.81;82.05
9439;BME280;5176;42.622;25.386;2022-11-02T04:44:03;97692.16;;;9.80;82.18
9439;BME280;5176;42.622;25.386;2022-11-02T04:46:33;97687.09;;;9.77;81.75
9439;BME280;5176;42.622;25.386;2022-11-02T04:49:01;97687.16;;;9.76;82.05
9439;BME280;5176;42.622;25.386;2022-11-02T04:51:29;97690.16;;;10.01;80.11
9439;BME280;5176;42.622;25.386;2022-11-02T04:53:57;97689.69;;;10.10;79.24
9439;BME280;5176;42.622;25.386;2022-11-02T04:56:24;97695.06;;;10.07;79.30
9439;BME280;5176;42.622;25.386;2022-11-02T04:58:54;97696.94;;;9.90;79.96
9439;BME280;5176;42.622;25.386;2022-11-02T05:01:22;97691.41;;;9.78;81.40
9439;BME280;5176;42.622;25.386;2022-11-02T05:03:53;97689.22;;;9.87;81.55
9439;BME280;5176;42.622;25.386;2022-11-02T05:06:21;97693.63;;;10.02;81.01
9439;BME280;5176;42.622;25.386;2022-11-02T05:08:49;97693.56;;;10.03;81.33
9439;BME280;5176;42.622;25.386;2022-11-02T05:11:16;97697.78;;;10.06;80.56
9439;BME280;5176;42.622;25.386;2022-11-02T05:13:43;97700.63;;;10.01;81.54
9439;BME280;5176;42.622;25.386;2022-11-02T05:16:12;97696.56;;;9.80;83.25
9439;BME280;5176;42.622;25.386;2022-11-02T05:18:40;97699.34;;;9.77;83.99
9439;BME280;5176;42.622;25.386;2022-11-02T05:21:10;97704.09;;;9.86;84.00
9439;BME280;5176;42.622;25.386;2022-11-02T05:23:38;97705.97;;;9.84;84.64
9439;BME280;5176;42.622;25.386;2022-11-02T05:26:07;97701.78;;;9.80;84.17
9439;BME280;5176;42.622;25.386;2022-11-02T05:28:35;97696.84;;;9.91;84.11
9439;BME280;5176;42.622;25.386;2022-11-02T05:31:02;97698.94;;;10.00;83.19
9439;BME280;5176;42.622;25.386;2022-11-02T05:33:31;97711.28;;;9.98;83.24
9439;BME280;5176;42.622;25.386;2022-11-02T05:35:58;97712.13;;;9.99;83.13
9439;BME280;5176;42.622;25.386;2022-11-02T05:38:27;97712.41;;;10.10;81.94
9439;BME280;5176;42.622;25.386;2022-11-02T05:40:56;97709.19;;;10.21;81.59
9439;BME280;5176;42.622;25.386;2022-11-02T05:43:24;97714.97;;;10.27;81.15
9439;BME280;5176;42.622;25.386;2022-11-02T05:45:52;97713.03;;;10.31;81.85
9439;BME280;5176;42.622;25.386;2022-11-02T05:48:20;97707.13;;;10.43;80.99
9439;BME280;5176;42.622;25.386;2022-11-02T05:50:48;97709.31;;;10.51;80.63
9439;BME280;5176;42.622;25.386;2022-11-02T05:53:15;97716.56;;;10.61;80.24
9439;BME280;5176;42.622;25.386;2022-11-02T05:55:43;97711.91;;;10.67;79.81
9439;BME280;5176;42.622;25.386;2022-11-02T05:58:11;97716.81;;;10.73;79.02
9439;BME280;5176;42.622;25.386;2022-11-02T06:00:38;97716.28;;;10.82;78.53
9439;BME280;5176;42.622;25.386;2022-11-02T06:03:05;97720.16;;;10.90;78.52
9439;BME280;5176;42.622;25.386;2022-11-02T06:05:32;97714.97;;;10.89;78.74
9439;BME280;5176;42.622;25.386;2022-11-02T06:08:00;97732.19;;;11.09;78.77
9439;BME280;5176;42.622;25.386;2022-11-02T06:10:28;97715.94;;;11.18;78.99
9439;BME280;5176;42.622;25.386;2022-11-02T06:12:58;97724.59;;;11.34;78.18
9439;BME280;5176;42.622;25.386;2022-11-02T06:15:26;97732.00;;;11.42;78.14
9439;BME280;5176;42.622;25.386;2022-11-02T06:17:53;97722.28;;;11.58;77.01
9439;BME280;5176;42.622;25.386;2022-11-02T06:20:21;97732.97;;;11.69;76.68
9439;BME280;5176;42.622;25.386;2022-11-02T06:22:48;97728.13;;;11.78;76.87
9439;BME280;5176;42.622;25.386;2022-11-02T06:25:16;97733.50;;;11.90;76.42
9439;BME280;5176;42.622;25.386;2022-11-02T06:27:49;97735.56;;;11.99;76.64
9439;BME280;5176;42.622;25.386;2022-11-02T06:30:19;97733.28;;;12.08;76.51
9439;BME280;5176;42.622;25.386;2022-11-02T06:32:47;97738.84;;;12.17;76.34
9439;BME280;5176;42.622;25.386;2022-11-02T06:35:15;97728.38;;;12.30;76.99
9439;BME280;5176;42.622;25.386;2022-11-02T06:37:43;97730.91;;;12.46;76.80
9439;BME280;5176;42.622;25.386;2022-11-02T06:40:11;97728.63;;;12.54;76.03
9439;BME280;5176;42.622;25.386;2022-11-02T06:42:39;97726.88;;;12.67;76.69
9439;BME280;5176;42.622;25.386;2022-11-02T06:45:07;97723.59;;;12.78;76.65
9439;BME280;5176;42.622;25.386;2022-11-02T06:47:36;97729.63;;;12.93;76.72
9439;BME280;5176;42.622;25.386;2022-11-02T06:50:05;97729.97;;;13.01;76.86
9439;BME280;5176;42.622;25.386;2022-11-02T06:52:32;97724.84;;;13.12;76.48
9439;BME280;5176;42.622;25.386;2022-11-02T06:54:59;97716.91;;;13.26;75.93
9439;BME280;5176;42.622;25.386;2022-11-02T06:57:26;97717.03;;;13.38;75.41
9439;BME280;5176;42.622;25.386;2022-11-02T06:59:54;97724.59;;;13.55;74.32
9439;BME280;5176;42.622;25.386;2022-11-02T07:02:28;97716.50;;;13.71;73.97
9439;BME280;5176;42.622;25.386;2022-11-02T07:04:57;97714.81;;;13.82;73.65
9439;BME280;5176;42.622;25.386;2022-11-02T07:07:24;97708.81;;;13.93;72.83
9439;BME280;5176;42.622;25.386;2022-11-02T07:09:51;97713.94;;;14.07;72.87
9439;BME280;5176;42.622;25.386;2022-11-02T07:12:18;97705.28;;;14.18;71.78
9439;BME280;5176;42.622;25.386;2022-11-02T07:14:46;97706.41;;;14.27;71.04
9439;BME280;5176;42.622;25.386;2022-11-02T07:17:13;97700.34;;;14.37;70.68
9439;BME280;5176;42.622;25.386;2022-11-02T07:19:40;97698.22;;;14.55;69.45
9439;BME280;5176;42.622;25.386;2022-11-02T07:22:09;97703.47;;;14.68;69.43
9439;BME280;5176;42.622;25.386;2022-11-02T07:24:36;97700.66;;;14.82;67.83
9439;BME280;5176;42.622;25.386;2022-11-02T07:27:04;97705.28;;;14.91;68.26
9439;BME280;5176;42.622;25.386;2022-11-02T07:29:31;97691.88;;;15.06;67.67
9439;BME280;5176;42.622;25.386;2022-11-02T07:31:58;97695.38;;;15.17;67.17
9439;BME280;5176;42.622;25.386;2022-11-02T07:34:25;97693.03;;;15.25;66.49
9439;BME280;5176;42.622;25.386;2022-11-02T07:36:54;97690.69;;;15.45;65.54
9439;BME280;5176;42.622;25.386;2022-11-02T07:39:23;97693.44;;;15.54;64.84
9439;BME280;5176;42.622;25.386;2022-11-02T07:41:50;97689.16;;;15.76;63.90
9439;BME280;5176;42.622;25.386;2022-11-02T07:44:18;97691.13;;;15.85;63.81
9439;BME280;5176;42.622;25.386;2022-11-02T07:46:45;97679.81;;;15.94;63.71
9439;BME280;5176;42.622;25.386;2022-11-02T07:49:12;97680.28;;;16.11;62.45
9439;BME280;5176;42.622;25.386;2022-11-02T07:51:39;97675.69;;;16.24;61.34
9439;BME280;5176;42.622;25.386;2022-11-02T07:54:06;97671.56;;;16.42;61.14
9439;BME280;5176;42.622;25.386;2022-11-02T07:56:35;97671.06;;;16.59;60.95
9439;BME280;5176;42.622;25.386;2022-11-02T07:59:02;97663.34;;;16.79;59.98
9439;BME280;5176;42.622;25.386;2022-11-02T08:01:29;97663.81;;;17.05;58.28
9439;BME280;5176;42.622;25.386;2022-11-02T08:03:57;97670.72;;;17.38;56.56
9439;BME280;5176;42.622;25.386;2022-11-02T08:06:24;97664.19;;;17.63;55.55
9439;BME280;5176;42.622;25.386;2022-11-02T08:08:51;97661.38;;;17.85;55.12
9439;BME280;5176;42.622;25.386;2022-11-02T08:11:18;97669.88;;;18.10;54.18
9439;BME280;5176;42.622;25.386;2022-11-02T08:13:47;97667.72;;;18.44;52.17
9439;BME280;5176;42.622;25.386;2022-11-02T08:16:14;97654.97;;;18.68;51.74
9439;BME280;5176;42.622;25.386;2022-11-02T08:18:41;97657.34;;;18.91;50.62
9439;BME280;5176;42.622;25.386;2022-11-02T08:21:08;97652.72;;;19.02;50.54
9439;BME280;5176;42.622;25.386;2022-11-02T08:23:36;97656.78;;;19.16;50.31
9439;BME280;5176;42.622;25.386;2022-11-02T08:26:03;97650.91;;;19.22;49.20
9439;BME280;5176;42.622;25.386;2022-11-02T08:28:31;97650.03;;;19.31;49.20
9439;BME280;5176;42.622;25.386;2022-11-02T08:31:02;97645.56;;;19.42;48.59
9439;BME280;5176;42.622;25.386;2022-11-02T08:33:29;97645.81;;;19.48;48.67
9439;BME280;5176;42.622;25.386;2022-11-02T08:36:00;97647.06;;;19.54;48.46
9439;BME280;5176;42.622;25.386;2022-11-02T08:38:28;97640.38;;;19.59;48.11
9439;BME280;5176;42.622;25.386;2022-11-02T08:40:55;97637.09;;;19.66;47.82
9439;BME280;5176;42.622;25.386;2022-11-02T08:43:22;97627.59;;;19.73;47.41
9439;BME280;5176;42.622;25.386;2022-11-02T08:45:50;97623.16;;;19.91;47.07
9439;BME280;5176;42.622;25.386;2022-11-02T08:48:18;97626.41;;;20.12;46.82
9439;BME280;5176;42.622;25.386;2022-11-02T08:50:47;97625.13;;;20.17;46.71
9439;BME280;5176;42.622;25.386;2022-11-02T08:53:15;97619.22;;;20.23;46.69
9439;BME280;5176;42.622;25.386;2022-11-02T08:55:42;97616.66;;;20.31;46.41
9439;BME280;5176;42.622;25.386;2022-11-02T08:58:09;97610.72;;;20.47;46.11
9439;BME280;5176;42.622;25.386;2022-11-02T09:00:37;97620.00;;;20.60;46.17
9439;BME280;5176;42.622;25.386;2022-11-02T09:03:05;97607.81;;;20.76;44.94
9439;BME280;5176;42.622;25.386;2022-11-02T09:05:36;97610.84;;;20.99;44.30
9439;BME280;5176;42.622;25.386;2022-11-02T09:08:05;97602.66;;;21.18;45.01
9439;BME280;5176;42.622;25.386;2022-11-02T09:10:34;97602.50;;;21.37;43.41
9439;BME280;5176;42.622;25.386;2022-11-02T09:13:04;97596.31;;;21.63;42.47
9439;BME280;5176;42.622;25.386;2022-11-02T09:15:34;97602.09;;;21.84;43.20
9439;BME280;5176;42.622;25.386;2022-11-02T09:18:02;97602.81;;;21.94;43.17
9439;BME280;5176;42.622;25.386;2022-11-02T09:20:29;97588.31;;;21.97;42.28
9439;BME280;5176;42.622;25.386;2022-11-02T09:22:58;97583.50;;;22.00;42.33
9439;BME280;5176;42.622;25.386;2022-11-02T09:25:25;97574.78;;;21.98;42.61
9439;BME280;5176;42.622;25.386;2022-11-02T09:27:54;97575.78;;;21.97;41.73
9439;BME280;5176;42.622;25.386;2022-11-02T09:30:22;97577.81;;;21.95;42.59
9439;BME280;5176;42.622;25.386;2022-11-02T09:32:53;97576.63;;;21.98;42.72
9439;BME280;5176;42.622;25.386;2022-11-02T09:35:21;97568.78;;;21.96;42.72
9439;BME280;5176;42.622;25.386;2022-11-02T09:37:48;97565.66;;;22.01;42.64
9439;BME280;5176;42.622;25.386;2022-11-02T09:40:19;97557.47;;;22.02;43.05
9439;BME280;5176;42.622;25.386;2022-11-02T09:42:57;97563.66;;;22.03;42.63
9439;BME280;5176;42.622;25.386;2022-11-02T09:45:27;97551.88;;;22.14;41.83
9439;BME280;5176;42.622;25.386;2022-11-02T09:47:59;97552.72;;;22.22;42.60
9439;BME280;5176;42.622;25.386;2022-11-02T09:50:35;97549.22;;;22.30;41.96
9439;BME280;5176;42.622;25.386;2022-11-02T09:53:06;97556.94;;;22.49;41.41
9439;BME280;5176;42.622;25.386;2022-11-02T09:55:41;97551.47;;;22.67;40.99
9439;BME280;5176;42.622;25.386;2022-11-02T09:58:16;97547.47;;;22.96;40.77
9439;BME280;5176;42.622;25.386;2022-11-02T10:00:47;97545.72;;;23.44;38.75
9439;BME280;5176;42.622;25.386;2022-11-02T10:03:27;97534.09;;;24.15;36.46
9439;BME280;5176;42.622;25.386;2022-11-02T10:06:05;97539.75;;;24.51;36.73
9439;BME280;5176;42.622;25.386;2022-11-02T10:08:46;97539.09;;;24.95;35.78
9439;BME280;5176;42.622;25.386;2022-11-02T10:11:33;97531.59;;;25.58;33.43
9439;BME280;5176;42.622;25.386;2022-11-02T10:14:09;97527.13;;;25.94;31.02
9439;BME280;5176;42.622;25.386;2022-11-02T10:16:42;97525.78;;;26.20;30.35
9439;BME280;5176;42.622;25.386;2022-11-02T10:19:14;97526.81;;;26.19;32.06
9439;BME280;5176;42.622;25.386;2022-11-02T10:21:45;97524.84;;;26.27;30.06
9439;BME280;5176;42.622;25.386;2022-11-02T10:24:21;97516.03;;;26.33;29.91
9439;BME280;5176;42.622;25.386;2022-11-02T10:26:52;97515.13;;;26.26;31.54
9439;BME280;5176;42.622;25.386;2022-11-02T10:29:29;97512.03;;;26.08;30.90
9439;BME280;5176;42.622;25.386;2022-11-02T10:32:00;97514.81;;;26.00;29.21
9439;BME280;5176;42.622;25.386;2022-11-02T10:34:29;97500.19;;;25.88;29.55
9439;BME280;5176;42.622;25.386;2022-11-02T10:37:11;97496.59;;;25.80;28.20
9439;BME280;5176;42.622;25.386;2022-11-02T10:39:48;97501.34;;;25.78;28.98
9439;BME280;5176;42.622;25.386;2022-11-02T10:42:38;97490.47;;;25.72;28.83
9439;BME280;5176;42.622;25.386;2022-11-02T10:45:34;97482.16;;;25.67;29.47
9439;BME280;5176;42.622;25.386;2022-11-02T10:48:12;97481.13;;;25.68;28.98
9439;BME280;5176;42.622;25.386;2022-11-02T10:50:47;97480.41;;;25.74;27.04
9439;BME280;5176;42.622;25.386;2022-11-02T10:53:16;97473.19;;;25.74;28.42
9439;BME280;5176;42.622;25.386;2022-11-02T10:55:52;97479.66;;;25.80;26.65
9439;BME280;5176;42.622;25.386;2022-11-02T10:58:23;97461.06;;;25.78;26.48
9439;BME280;5176;42.622;25.386;2022-11-02T11:01:08;97469.00;;;25.87;26.57
9439;BME280;5176;42.622;25.386;2022-11-02T11:03:52;97470.94;;;25.93;28.29
9439;BME280;5176;42.622;25.386;2022-11-02T11:06:21;97462.59;;;26.02;27.06
9439;BME280;5176;42.622;25.386;2022-11-02T11:08:50;97464.31;;;26.10;25.13
9439;BME280;5176;42.622;25.386;2022-11-02T11:11:23;97463.63;;;26.23;25.89
9439;BME280;5176;42.622;25.386;2022-11-02T11:13:58;97456.00;;;26.26;25.03
9439;BME280;5176;42.622;25.386;2022-11-02T11:16:38;97464.72;;;26.28;25.52
9439;BME280;5176;42.622;25.386;2022-11-02T11:19:17;97460.19;;;26.29;25.71
9439;BME280;5176;42.622;25.386;2022-11-02T11:21:46;97451.25;;;26.43;25.51
9439;BME280;5176;42.622;25.386;2022-11-02T11:24:20;97467.28;;;26.58;25.09
9439;BME280;5176;42.622;25.386;2022-11-02T11:27:04;97459.72;;;26.68;25.42
9439;BME280;5176;42.622;25.386;2022-11-02T11:29:34;97459.53;;;26.70;25.24
9439;BME280;5176;42.622;25.386;2022-11-02T11:32:03;97460.56;;;26.69;24.75
9439;BME280;5176;42.622;25.386;2022-11-02T11:34:39;97467.00;;;26.74;24.59
9439;BME280;5176;42.622;25.386;2022-11-02T11:37:08;97459.97;;;26.73;23.88
9439;BME280;5176;42.622;25.386;2022-11-02T11:39:37;97449.72;;;26.83;23.80
9439;BME280;5176;42.622;25.386;2022-11-02T11:42:14;97448.28;;;26.87;23.75
9439;BME280;5176;42.622;25.386;2022-11-02T11:44:46;97443.69;;;26.81;24.10
9439;BME280;5176;42.622;25.386;2022-11-02T11:47:27;97458.81;;;26.82;23.81
9439;BME280;5176;42.622;25.386;2022-11-02T11:49:56;97452.78;;;26.80;24.18
9439;BME280;5176;42.622;25.386;2022-11-02T11:52:28;97447.03;;;26.83;24.58
9439;BME280;5176;42.622;25.386;2022-11-02T11:54:57;97452.00;;;26.86;23.70
9439;BME280;5176;42.622;25.386;2022-11-02T11:57:27;97441.41;;;26.78;23.78
9439;BME280;5176;42.622;25.386;2022-11-02T11:59:58;97435.81;;;26.80;24.25
9439;BME280;5176;42.622;25.386;2022-11-02T12:02:28;97441.41;;;26.78;24.40
9439;BME280;5176;42.622;25.386;2022-11-02T12:04:59;97440.94;;;26.75;24.97
9439;BME280;5176;42.622;25.386;2022-11-02T12:10:33;97450.25;;;26.72;23.69
9439;BME280;5176;42.622;25.386;2022-11-02T12:13:13;97438.66;;;26.72;23.65
9439;BME280;5176;42.622;25.386;2022-11-02T12:15:58;97440.25;;;26.66;24.39
9439;BME280;5176;42.622;25.386;2022-11-02T12:18:36;97446.69;;;26.65;24.98
9439;BME280;5176;42.622;25.386;2022-11-02T12:21:14;97440.22;;;26.59;24.72
9439;BME280;5176;42.622;25.386;2022-11-02T12:24:04;97443.94;;;26.58;24.51
9439;BME280;5176;42.622;25.386;2022-11-02T12:26:47;97424.69;;;26.55;24.76
9439;BME280;5176;42.622;25.386;2022-11-02T12:29:34;97434.00;;;26.59;25.89
9439;BME280;5176;42.622;25.386;2022-11-02T12:32:12;97438.16;;;26.61;26.38
9439;BME280;5176;42.622;25.386;2022-11-02T12:34:58;97437.66;;;26.51;26.60
9439;BME280;5176;42.622;25.386;2022-11-02T12:37:33;97430.56;;;26.44;26.71
9439;BME280;5176;42.622;25.386;2022-11-02T12:40:20;97425.81;;;26.46;26.70
9439;BME280;5176;42.622;25.386;2022-11-02T12:42:55;97431.59;;;26.43;26.68
9439;BME280;5176;42.622;25.386;2022-11-02T12:45:32;97430.22;;;26.53;26.35
9439;BME280;5176;42.622;25.386;2022-11-02T12:48:05;97425.25;;;26.50;26.45
9439;BME280;5176;42.622;25.386;2022-11-02T12:50:50;97431.00;;;26.47;26.60
9439;BME280;5176;42.622;25.386;2022-11-02T12:53:33;97419.94;;;26.57;26.08
9439;BME280;5176;42.622;25.386;2022-11-02T12:56:04;97425.75;;;26.60;25.84
9439;BME280;5176;42.622;25.386;2022-11-02T12:58:34;97417.81;;;26.52;26.21
9439;BME280;5176;42.622;25.386;2022-11-02T13:01:07;97425.88;;;26.52;26.27
9439;BME280;5176;42.622;25.386;2022-11-02T13:03:43;97423.00;;;26.54;26.45
9439;BME280;5176;42.622;25.386;2022-11-02T13:06:16;97418.59;;;26.46;26.34
9439;BME280;5176;42.622;25.386;2022-11-02T13:08:49;97424.28;;;26.37;26.15
9439;BME280;5176;42.622;25.386;2022-11-02T13:11:22;97414.72;;;26.34;26.05
9439;BME280;5176;42.622;25.386;2022-11-02T13:13:52;97421.91;;;26.27;26.25
9439;BME280;5176;42.622;25.386;2022-11-02T13:16:27;97416.72;;;26.25;26.06
9439;BME280;5176;42.622;25.386;2022-11-02T13:19:00;97418.13;;;26.21;25.97
9439;BME280;5176;42.622;25.386;2022-11-02T13:21:32;97418.03;;;26.08;26.04
9439;BME280;5176;42.622;25.386;2022-11-02T13:24:01;97425.69;;;26.11;25.79
9439;BME280;5176;42.622;25.386;2022-11-02T13:26:33;97426.44;;;26.05;25.84
9439;BME280;5176;42.622;25.386;2022-11-02T13:29:06;97423.50;;;26.00;26.19
9439;BME280;5176;42.622;25.386;2022-11-02T13:31:41;97422.66;;;25.99;25.86
9439;BME280;5176;42.622;25.386;2022-11-02T13:34:16;97423.81;;;25.90;25.92
9439;BME280;5176;42.622;25.386;2022-11-02T13:36:44;97417.81;;;25.88;25.78
9439;BME280;5176;42.622;25.386;2022-11-02T13:39:16;97420.66;;;25.87;25.96
9439;BME280;5176;42.622;25.386;2022-11-02T13:42:12;97427.44;;;25.83;26.03